sensor_id;sensor_type;location;lat;lon;timestamp;temperature;humidity
13148;DHT22;6639;50.956;4.242;2023-02-03T00:01:01;12.90;99.90
13148;DHT22;6639;50.956;4.242;2023-02-03T00:03:29;12.90;99.90
13148;DHT22;6639;50.956;4.242;2023-02-03T00:05:56;13.00;99.90
13148;DHT22;6639;50.956;4.242;2023-02-03T00:08:24;12.80;99.90
13148;DHT22;6639;50.956;4.242;2023-02-03T00:10:52;12.70;99.90
13148;DHT22;6639;50.956;4.242;2023-02-03T00:13:22;12.80;99.90
13148;DHT22;6639;50.956;4.242;2023-02-03T00:15:51;13.00;99.90
13148;DHT22;6639;50.956;4.242;2023-02-03T00:18:20;13.20;99.90
13148;DHT22;6639;50.956;4.242;2023-02-03T00:20:48;13.40;99.90
13148;DHT22;6639;50.956;4.242;2023-02-03T00:23:15;13.30;99.90
13148;DHT22;6639;50.956;4.242;2023-02-03T00:25:45;13.30;99.90
13148;DHT22;6639;50.956;4.242;2023-02-03T00:28:12;13.50;99.90
13148;DHT22;6639;50.956;4.242;2023-02-03T00:30:40;13.40;99.90
13148;DHT22;6639;50.956;4.242;2023-02-03T00:33:07;13.20;99.90
13148;DHT22;6639;50.956;4.242;2023-02-03T00:35:45;13.10;99.90
13148;DHT22;6639;50.956;4.242;2023-02-03T00:38:12;13.10;99.90
13148;DHT22;6639;50.956;4.242;2023-02-03T00:40:50;13.30;99.90
13148;DHT22;6639;50.956;4.242;2023-02-03T00:43:17;13.20;99.90
13148;DHT22;6639;50.956;4.242;2023-02-03T00:45:47;13.20;99.90
13148;DHT22;6639;50.956;4.242;2023-02-03T00:48:14;13.60;99.90
13148;DHT22;6639;50.956;4.242;2023-02-03T00:50:52;13.40;99.90
13148;DHT22;6639;50.956;4.242;2023-02-03T00:53:19;13.30;99.90
13148;DHT22;6639;50.956;4.242;2023-02-03T00:55:46;13.20;99.90
13148;DHT22;6639;50.956;4.242;2023-02-03T00:58:16;13.30;99.90
13148;DHT22;6639;50.956;4.242;2023-02-03T01:00:47;13.70;99.90
13148;DHT22;6639;50.956;4.242;2023-02-03T01:03:16;13.80;99.90
13148;DHT22;6639;50.956;4.242;2023-02-03T01:05:44;14.20;99.90
13148;DHT22;6639;50.956;4.242;2023-02-03T01:08:18;14.10;99.90
13148;DHT22;6639;50.956;4.242;2023-02-03T01:10:46;13.80;99.90
13148;DHT22;6639;50.956;4.242;2023-02-03T01:13:16;14.00;99.90
13148;DHT22;6639;50.956;4.242;2023-02-03T01:15:48;13.70;99.90
13148;DHT22;6639;50.956;4.242;2023-02-03T01:18:15;13.80;99.90
13148;DHT22;6639;50.956;4.242;2023-02-03T01:20:42;13.70;99.90
13148;DHT22;6639;50.956;4.242;2023-02-03T01:23:09;13.90;99.90
13148;DHT22;6639;50.956;4.242;2023-02-03T01:25:38;14.00;99.90
13148;DHT22;6639;50.956;4.242;2023-02-03T01:28:15;13.80;99.90
13148;DHT22;6639;50.956;4.242;2023-02-03T01:30:44;13.70;99.90
13148;DHT22;6639;50.956;4.242;2023-02-03T01:33:11;13.60;99.90
13148;DHT22;6639;50.956;4.242;2023-02-03T01:35:40;13.50;99.90
13148;DHT22;6639;50.956;4.242;2023-02-03T01:41:09;13.80;99.90
13148;DHT22;6639;50.956;4.242;2023-02-03T01:43:42;13.90;99.90
13148;DHT22;6639;50.956;4.242;2023-02-03T01:46:21;13.70;99.90
13148;DHT22;6639;50.956;4.242;2023-02-03T01:48:51;13.50;99.90
13148;DHT22;6639;50.956;4.242;2023-02-03T01:51:21;13.40;99.90
13148;DHT22;6639;50.956;4.242;2023-02-03T01:53:54;13.30;99.90
13148;DHT22;6639;50.956;4.242;2023-02-03T01:56:24;13.30;99.90
13148;DHT22;6639;50.956;4.242;2023-02-03T01:58:57;13.60;99.90
13148;DHT22;6639;50.956;4.242;2023-02-03T02:01:32;13.60;99.90
13148;DHT22;6639;50.956;4.242;2023-02-03T02:04:02;14.00;99.90
13148;DHT22;6639;50.956;4.242;2023-02-03T02:06:29;14.20;99.90
13148;DHT22;6639;50.956;4.242;2023-02-03T02:08:58;13.90;99.90
13148;DHT22;6639;50.956;4.242;2023-02-03T02:11:35;13.60;99.90
13148;DHT22;6639;50.956;4.242;2023-02-03T02:14:02;13.60;99.90
13148;DHT22;6639;50.956;4.242;2023-02-03T02:16:39;13.50;99.90
13148;DHT22;6639;50.956;4.242;2023-02-03T02:19:31;14.00;99.90
13148;DHT22;6639;50.956;4.242;2023-02-03T02:22:08;14.00;99.90
13148;DHT22;6639;50.956;4.242;2023-02-03T02:25:04;14.10;99.90
13148;DHT22;6639;50.956;4.242;2023-02-03T02:28:08;14.10;99.90
13148;DHT22;6639;50.956;4.242;2023-02-03T02:37:06;13.10;99.90
13148;DHT22;6639;50.956;4.242;2023-02-03T02:39:42;13.10;99.90
13148;DHT22;6639;50.956;4.242;2023-02-03T02:42:15;13.20;99.90
13148;DHT22;6639;50.956;4.242;2023-02-03T02:45:05;13.00;99.90
13148;DHT22;6639;50.956;4.242;2023-02-03T02:47:34;12.90;99.90
13148;DHT22;6639;50.956;4.242;2023-02-03T02:50:08;12.80;99.90
13148;DHT22;6639;50.956;4.242;2023-02-03T02:52:40;12.90;99.90
13148;DHT22;6639;50.956;4.242;2023-02-03T02:55:12;12.90;99.90
13148;DHT22;6639;50.956;4.242;2023-02-03T02:57:42;13.00;99.90
13148;DHT22;6639;50.956;4.242;2023-02-03T03:00:11;13.10;99.90
13148;DHT22;6639;50.956;4.242;2023-02-03T03:02:38;13.40;99.90
13148;DHT22;6639;50.956;4.242;2023-02-03T03:05:11;13.30;99.90
13148;DHT22;6639;50.956;4.242;2023-02-03T03:07:48;13.00;99.90
13148;DHT22;6639;50.956;4.242;2023-02-03T03:10:21;13.20;99.90
13148;DHT22;6639;50.956;4.242;2023-02-03T03:12:56;13.20;99.90
13148;DHT22;6639;50.956;4.242;2023-02-03T03:15:29;13.30;99.90
13148;DHT22;6639;50.956;4.242;2023-02-03T03:17:59;13.10;99.90
13148;DHT22;6639;50.956;4.242;2023-02-03T03:20:32;13.10;99.90
13148;DHT22;6639;50.956;4.242;2023-02-03T03:23:05;13.20;99.90
13148;DHT22;6639;50.956;4.242;2023-02-03T03:25:47;13.00;99.90
13148;DHT22;6639;50.956;4.242;2023-02-03T03:28:19;13.10;99.90
13148;DHT22;6639;50.956;4.242;2023-02-03T03:30:49;13.20;99.90
13148;DHT22;6639;50.956;4.242;2023-02-03T03:33:16;13.20;99.90
13148;DHT22;6639;50.956;4.242;2023-02-03T03:35:47;13.30;99.90
13148;DHT22;6639;50.956;4.242;2023-02-03T03:38:31;13.70;99.90
13148;DHT22;6639;50.956;4.242;2023-02-03T03:41:07;13.20;99.90
13148;DHT22;6639;50.956;4.242;2023-02-03T03:43:38;14.00;99.90
13148;DHT22;6639;50.956;4.242;2023-02-03T03:46:13;14.20;99.90
13148;DHT22;6639;50.956;4.242;2023-02-03T03:48:45;14.10;99.90
13148;DHT22;6639;50.956;4.242;2023-02-03T03:51:18;14.00;99.90
13148;DHT22;6639;50.956;4.242;2023-02-03T03:53:51;14.20;99.90
13148;DHT22;6639;50.956;4.242;2023-02-03T03:56:33;14.10;99.90
13148;DHT22;6639;50.956;4.242;2023-02-03T03:59:03;13.50;99.90
13148;DHT22;6639;50.956;4.242;2023-02-03T04:01:33;13.60;99.90
13148;DHT22;6639;50.956;4.242;2023-02-03T04:04:02;14.00;99.90
13148;DHT22;6639;50.956;4.242;2023-02-03T04:06:33;13.70;99.90
13148;DHT22;6639;50.956;4.242;2023-02-03T04:09:00;13.50;99.90
13148;DHT22;6639;50.956;4.242;2023-02-03T04:11:28;13.50;99.90
13148;DHT22;6639;50.956;4.242;2023-02-03T04:14:12;13.60;99.90
13148;DHT22;6639;50.956;4.242;2023-02-03T04:16:39;13.20;99.90
13148;DHT22;6639;50.956;4.242;2023-02-03T04:19:06;12.90;99.90
13148;DHT22;6639;50.956;4.242;2023-02-03T04:21:35;13.00;99.90
13148;DHT22;6639;50.956;4.242;2023-02-03T04:24:02;12.90;99.90
13148;DHT22;6639;50.956;4.242;2023-02-03T04:26:52;12.70;99.90
13148;DHT22;6639;50.956;4.242;2023-02-03T04:29:19;13.00;99.90
13148;DHT22;6639;50.956;4.242;2023-02-03T04:31:47;13.10;99.90
13148;DHT22;6639;50.956;4.242;2023-02-03T04:34:14;13.20;99.90
13148;DHT22;6639;50.956;4.242;2023-02-03T04:39:39;13.60;99.90
13148;DHT22;6639;50.956;4.242;2023-02-03T04:42:06;13.50;99.90
13148;DHT22;6639;50.956;4.242;2023-02-03T04:44:33;13.60;99.90
13148;DHT22;6639;50.956;4.242;2023-02-03T04:47:00;13.40;99.90
13148;DHT22;6639;50.956;4.242;2023-02-03T04:49:27;13.50;99.90
13148;DHT22;6639;50.956;4.242;2023-02-03T04:51:55;13.40;99.90
13148;DHT22;6639;50.956;4.242;2023-02-03T04:54:24;14.00;99.90
13148;DHT22;6639;50.956;4.242;2023-02-03T04:56:52;14.10;99.90
13148;DHT22;6639;50.956;4.242;2023-02-03T04:59:19;14.00;99.90
13148;DHT22;6639;50.956;4.242;2023-02-03T05:01:49;13.50;99.90
13148;DHT22;6639;50.956;4.242;2023-02-03T05:04:16;13.30;99.90
13148;DHT22;6639;50.956;4.242;2023-02-03T05:06:52;13.30;99.90
13148;DHT22;6639;50.956;4.242;2023-02-03T05:09:23;13.30;99.90
13148;DHT22;6639;50.956;4.242;2023-02-03T05:11:58;13.30;99.90
13148;DHT22;6639;50.956;4.242;2023-02-03T05:14:27;13.30;99.90
13148;DHT22;6639;50.956;4.242;2023-02-03T05:16:56;13.20;99.90
13148;DHT22;6639;50.956;4.242;2023-02-03T05:19:23;13.10;99.90
13148;DHT22;6639;50.956;4.242;2023-02-03T05:21:54;12.90;99.90
13148;DHT22;6639;50.956;4.242;2023-02-03T05:24:28;13.30;99.90
13148;DHT22;6639;50.956;4.242;2023-02-03T05:26:57;13.20;99.90
13148;DHT22;6639;50.956;4.242;2023-02-03T05:29:26;13.10;99.90
13148;DHT22;6639;50.956;4.242;2023-02-03T05:31:53;13.20;99.90
13148;DHT22;6639;50.956;4.242;2023-02-03T05:34:20;13.20;99.90
13148;DHT22;6639;50.956;4.242;2023-02-03T05:37:01;13.00;99.90
13148;DHT22;6639;50.956;4.242;2023-02-03T05:39:33;13.30;99.90
13148;DHT22;6639;50.956;4.242;2023-02-03T05:44:59;13.30;99.90
13148;DHT22;6639;50.956;4.242;2023-02-03T05:47:26;13.20;99.90
13148;DHT22;6639;50.956;4.242;2023-02-03T05:49:54;13.00;99.90
13148;DHT22;6639;50.956;4.242;2023-02-03T05:52:23;12.80;99.90
13148;DHT22;6639;50.956;4.242;2023-02-03T05:54:55;12.90;99.90
13148;DHT22;6639;50.956;4.242;2023-02-03T05:57:25;12.90;99.90
13148;DHT22;6639;50.956;4.242;2023-02-03T05:59:52;12.90;99.90
13148;DHT22;6639;50.956;4.242;2023-02-03T06:02:19;13.00;99.90
13148;DHT22;6639;50.956;4.242;2023-02-03T06:04:46;13.20;99.90
13148;DHT22;6639;50.956;4.242;2023-02-03T06:07:14;13.30;99.90
13148;DHT22;6639;50.956;4.242;2023-02-03T06:09:42;13.30;99.90
13148;DHT22;6639;50.956;4.242;2023-02-03T06:12:13;13.30;99.90
13148;DHT22;6639;50.956;4.242;2023-02-03T06:14:42;13.40;99.90
13148;DHT22;6639;50.956;4.242;2023-02-03T06:17:29;13.20;99.90
13148;DHT22;6639;50.956;4.242;2023-02-03T06:19:56;13.20;99.90
13148;DHT22;6639;50.956;4.242;2023-02-03T06:22:25;13.40;99.90
13148;DHT22;6639;50.956;4.242;2023-02-03T06:24:52;13.20;99.90
13148;DHT22;6639;50.956;4.242;2023-02-03T06:27:21;13.30;99.90
13148;DHT22;6639;50.956;4.242;2023-02-03T06:29:51;13.00;99.90
13148;DHT22;6639;50.956;4.242;2023-02-03T06:32:18;12.80;99.90
13148;DHT22;6639;50.956;4.242;2023-02-03T06:34:48;12.90;99.90
13148;DHT22;6639;50.956;4.242;2023-02-03T06:37:15;13.30;99.90
13148;DHT22;6639;50.956;4.242;2023-02-03T06:39:42;13.50;99.90
13148;DHT22;6639;50.956;4.242;2023-02-03T06:42:09;13.40;99.90
13148;DHT22;6639;50.956;4.242;2023-02-03T06:44:38;13.30;99.90
13148;DHT22;6639;50.956;4.242;2023-02-03T06:47:08;13.30;99.90
13148;DHT22;6639;50.956;4.242;2023-02-03T06:49:35;13.10;99.90
13148;DHT22;6639;50.956;4.242;2023-02-03T06:52:05;13.10;99.90
13148;DHT22;6639;50.956;4.242;2023-02-03T06:54:32;13.10;99.90
13148;DHT22;6639;50.956;4.242;2023-02-03T06:56:59;13.20;99.90
13148;DHT22;6639;50.956;4.242;2023-02-03T06:59:27;13.20;99.90
13148;DHT22;6639;50.956;4.242;2023-02-03T07:05:15;13.30;99.90
13148;DHT22;6639;50.956;4.242;2023-02-03T07:07:43;13.30;99.90
13148;DHT22;6639;50.956;4.242;2023-02-03T07:10:13;13.10;99.90
13148;DHT22;6639;50.956;4.242;2023-02-03T07:12:40;13.10;99.90
13148;DHT22;6639;50.956;4.242;2023-02-03T07:15:08;13.30;99.90
13148;DHT22;6639;50.956;4.242;2023-02-03T07:17:36;13.20;99.90
13148;DHT22;6639;50.956;4.242;2023-02-03T07:20:04;13.40;99.90
13148;DHT22;6639;50.956;4.242;2023-02-03T07:22:33;13.60;99.90
13148;DHT22;6639;50.956;4.242;2023-02-03T07:25:01;13.50;99.90
13148;DHT22;6639;50.956;4.242;2023-02-03T07:27:28;13.20;99.90
13148;DHT22;6639;50.956;4.242;2023-02-03T07:29:55;12.90;99.90
13148;DHT22;6639;50.956;4.242;2023-02-03T07:32:24;12.70;99.90
13148;DHT22;6639;50.956;4.242;2023-02-03T07:34:53;12.70;99.90
13148;DHT22;6639;50.956;4.242;2023-02-03T07:37:20;12.80;99.90
13148;DHT22;6639;50.956;4.242;2023-02-03T07:40:06;12.90;99.90
13148;DHT22;6639;50.956;4.242;2023-02-03T07:42:33;12.70;99.90
13148;DHT22;6639;50.956;4.242;2023-02-03T07:45:00;12.70;99.90
13148;DHT22;6639;50.956;4.242;2023-02-03T07:47:27;12.80;99.90
13148;DHT22;6639;50.956;4.242;2023-02-03T07:49:54;13.00;99.90
13148;DHT22;6639;50.956;4.242;2023-02-03T07:52:23;13.50;99.90
13148;DHT22;6639;50.956;4.242;2023-02-03T07:54:54;13.50;99.90
13148;DHT22;6639;50.956;4.242;2023-02-03T07:57:23;13.80;99.90
13148;DHT22;6639;50.956;4.242;2023-02-03T07:59:50;13.30;99.90
13148;DHT22;6639;50.956;4.242;2023-02-03T08:02:17;13.20;99.90
13148;DHT22;6639;50.956;4.242;2023-02-03T08:04:44;13.10;99.90
13148;DHT22;6639;50.956;4.242;2023-02-03T08:07:15;13.10;99.90
13148;DHT22;6639;50.956;4.242;2023-02-03T08:09:51;13.20;99.90
13148;DHT22;6639;50.956;4.242;2023-02-03T08:12:18;13.20;99.90
13148;DHT22;6639;50.956;4.242;2023-02-03T08:14:47;13.10;99.90
13148;DHT22;6639;50.956;4.242;2023-02-03T08:17:15;13.50;99.90
13148;DHT22;6639;50.956;4.242;2023-02-03T08:19:50;13.50;99.90
13148;DHT22;6639;50.956;4.242;2023-02-03T08:22:17;13.60;99.90
13148;DHT22;6639;50.956;4.242;2023-02-03T08:24:45;13.90;99.90
13148;DHT22;6639;50.956;4.242;2023-02-03T08:27:13;13.70;99.90
13148;DHT22;6639;50.956;4.242;2023-02-03T08:29:40;13.30;99.90
13148;DHT22;6639;50.956;4.242;2023-02-03T08:32:11;13.20;99.90
13148;DHT22;6639;50.956;4.242;2023-02-03T08:34:40;13.10;99.90
13148;DHT22;6639;50.956;4.242;2023-02-03T08:37:09;13.20;99.90
13148;DHT22;6639;50.956;4.242;2023-02-03T08:39:38;13.10;99.90
13148;DHT22;6639;50.956;4.242;2023-02-03T08:42:15;13.10;99.90
13148;DHT22;6639;50.956;4.242;2023-02-03T08:44:45;13.40;99.90
13148;DHT22;6639;50.956;4.242;2023-02-03T08:47:15;13.60;99.90
13148;DHT22;6639;50.956;4.242;2023-02-03T08:49:43;13.50;99.90
13148;DHT22;6639;50.956;4.242;2023-02-03T08:52:23;13.70;99.90
13148;DHT22;6639;50.956;4.242;2023-02-03T08:54:52;13.50;99.90
13148;DHT22;6639;50.956;4.242;2023-02-03T08:57:35;13.60;99.90
13148;DHT22;6639;50.956;4.242;2023-02-03T09:00:03;13.40;99.90
13148;DHT22;6639;50.956;4.242;2023-02-03T09:02:32;13.40;99.90
13148;DHT22;6639;50.956;4.242;2023-02-03T09:05:01;13.10;99.90
13148;DHT22;6639;50.956;4.242;2023-02-03T09:07:28;13.50;99.90
13148;DHT22;6639;50.956;4.242;2023-02-03T09:09:56;13.60;99.90
13148;DHT22;6639;50.956;4.242;2023-02-03T09:12:25;13.80;99.90
13148;DHT22;6639;50.956;4.242;2023-02-03T09:14:53;13.80;99.90
13148;DHT22;6639;50.956;4.242;2023-02-03T09:17:22;13.70;99.90
13148;DHT22;6639;50.956;4.242;2023-02-03T09:19:51;13.70;99.90
13148;DHT22;6639;50.956;4.242;2023-02-03T09:22:21;13.90;99.90
13148;DHT22;6639;50.956;4.242;2023-02-03T09:24:56;13.90;99.90
13148;DHT22;6639;50.956;4.242;2023-02-03T09:27:29;13.90;99.90
13148;DHT22;6639;50.956;4.242;2023-02-03T09:29:56;14.20;99.90
13148;DHT22;6639;50.956;4.242;2023-02-03T09:32:23;14.00;99.90
13148;DHT22;6639;50.956;4.242;2023-02-03T09:34:52;14.20;99.90
13148;DHT22;6639;50.956;4.242;2023-02-03T09:37:20;14.30;99.90
13148;DHT22;6639;50.956;4.242;2023-02-03T09:39:47;14.70;99.90
13148;DHT22;6639;50.956;4.242;2023-02-03T09:42:35;14.40;99.90
13148;DHT22;6639;50.956;4.242;2023-02-03T09:45:16;14.20;99.90
13148;DHT22;6639;50.956;4.242;2023-02-03T09:47:44;14.40;99.90
13148;DHT22;6639;50.956;4.242;2023-02-03T09:50:21;14.80;99.90
13148;DHT22;6639;50.956;4.242;2023-02-03T09:52:50;14.60;99.90
13148;DHT22;6639;50.956;4.242;2023-02-03T09:55:27;14.80;99.90
13148;DHT22;6639;50.956;4.242;2023-02-03T09:58:02;14.60;99.90
13148;DHT22;6639;50.956;4.242;2023-02-03T10:00:33;14.80;99.90
13148;DHT22;6639;50.956;4.242;2023-02-03T10:03:06;14.90;99.90
13148;DHT22;6639;50.956;4.242;2023-02-03T10:05:57;15.00;99.90
13148;DHT22;6639;50.956;4.242;2023-02-03T10:11:47;14.70;99.90
13148;DHT22;6639;50.956;4.242;2023-02-03T10:14:43;14.60;99.90
13148;DHT22;6639;50.956;4.242;2023-02-03T10:17:21;14.80;99.90
13148;DHT22;6639;50.956;4.242;2023-02-03T10:19:59;14.60;99.90
13148;DHT22;6639;50.956;4.242;2023-02-03T10:22:32;14.60;99.90
13148;DHT22;6639;50.956;4.242;2023-02-03T10:25:06;14.70;99.90
13148;DHT22;6639;50.956;4.242;2023-02-03T10:27:34;14.90;99.90
13148;DHT22;6639;50.956;4.242;2023-02-03T10:30:09;14.80;99.90
13148;DHT22;6639;50.956;4.242;2023-02-03T10:32:41;15.00;99.90
13148;DHT22;6639;50.956;4.242;2023-02-03T10:35:10;15.30;99.90
13148;DHT22;6639;50.956;4.242;2023-02-03T10:37:42;15.50;99.90
13148;DHT22;6639;50.956;4.242;2023-02-03T10:40:12;15.40;99.90
13148;DHT22;6639;50.956;4.242;2023-02-03T10:42:42;15.20;99.90
13148;DHT22;6639;50.956;4.242;2023-02-03T10:45:28;14.90;99.90
13148;DHT22;6639;50.956;4.242;2023-02-03T10:47:58;14.70;99.90
13148;DHT22;6639;50.956;4.242;2023-02-03T10:50:26;15.30;99.90
13148;DHT22;6639;50.956;4.242;2023-02-03T10:53:19;15.50;99.90
13148;DHT22;6639;50.956;4.242;2023-02-03T10:55:50;15.40;99.90
13148;DHT22;6639;50.956;4.242;2023-02-03T10:58:24;15.80;99.90
13148;DHT22;6639;50.956;4.242;2023-02-03T11:00:54;15.60;99.90
13148;DHT22;6639;50.956;4.242;2023-02-03T11:03:27;15.70;99.90
13148;DHT22;6639;50.956;4.242;2023-02-03T11:06:07;15.20;99.90
13148;DHT22;6639;50.956;4.242;2023-02-03T11:08:39;14.90;99.90
13148;DHT22;6639;50.956;4.242;2023-02-03T11:11:09;15.10;99.90
13148;DHT22;6639;50.956;4.242;2023-02-03T11:13:39;15.10;99.90
13148;DHT22;6639;50.956;4.242;2023-02-03T11:16:11;15.30;99.90
13148;DHT22;6639;50.956;4.242;2023-02-03T11:18:55;15.10;99.90
13148;DHT22;6639;50.956;4.242;2023-02-03T11:21:28;15.10;99.90
13148;DHT22;6639;50.956;4.242;2023-02-03T11:24:05;15.10;99.90
13148;DHT22;6639;50.956;4.242;2023-02-03T11:26:35;15.00;99.90
13148;DHT22;6639;50.956;4.242;2023-02-03T11:29:04;14.90;99.90
13148;DHT22;6639;50.956;4.242;2023-02-03T11:31:34;15.00;99.90
13148;DHT22;6639;50.956;4.242;2023-02-03T11:34:05;15.50;99.90
13148;DHT22;6639;50.956;4.242;2023-02-03T11:36:36;15.40;99.90
13148;DHT22;6639;50.956;4.242;2023-02-03T11:39:38;15.30;99.90
13148;DHT22;6639;50.956;4.242;2023-02-03T11:42:21;15.00;99.90
13148;DHT22;6639;50.956;4.242;2023-02-03T11:44:48;14.80;99.90
13148;DHT22;6639;50.956;4.242;2023-02-03T11:47:18;14.70;99.90
13148;DHT22;6639;50.956;4.242;2023-02-03T11:50:08;14.80;99.90
13148;DHT22;6639;50.956;4.242;2023-02-03T11:53:04;14.80;99.90
13148;DHT22;6639;50.956;4.242;2023-02-03T11:55:48;14.90;99.90
13148;DHT22;6639;50.956;4.242;2023-02-03T11:58:42;15.40;99.90
13148;DHT22;6639;50.956;4.242;2023-02-03T12:01:22;15.70;99.90
13148;DHT22;6639;50.956;4.242;2023-02-03T12:07:21;16.00;99.90
13148;DHT22;6639;50.956;4.242;2023-02-03T12:09:59;16.00;99.90
13148;DHT22;6639;50.956;4.242;2023-02-03T12:12:43;16.40;99.90
13148;DHT22;6639;50.956;4.242;2023-02-03T12:15:23;16.30;99.90
13148;DHT22;6639;50.956;4.242;2023-02-03T12:18:07;16.20;99.90
13148;DHT22;6639;50.956;4.242;2023-02-03T12:20:44;16.30;99.90
13148;DHT22;6639;50.956;4.242;2023-02-03T12:26:15;15.60;99.90
13148;DHT22;6639;50.956;4.242;2023-02-03T12:28:53;15.80;99.90
13148;DHT22;6639;50.956;4.242;2023-02-03T12:31:26;16.10;99.90
13148;DHT22;6639;50.956;4.242;2023-02-03T12:34:02;15.90;99.90
13148;DHT22;6639;50.956;4.242;2023-02-03T12:36:36;15.80;99.90
13148;DHT22;6639;50.956;4.242;2023-02-03T12:39:10;15.50;99.90
13148;DHT22;6639;50.956;4.242;2023-02-03T12:42:06;15.80;99.90
13148;DHT22;6639;50.956;4.242;2023-02-03T12:44:45;15.70;99.90
13148;DHT22;6639;50.956;4.242;2023-02-03T12:47:20;15.90;99.90
13148;DHT22;6639;50.956;4.242;2023-02-03T12:49:55;16.30;99.90
13148;DHT22;6639;50.956;4.242;2023-02-03T12:52:45;16.70;99.90
13148;DHT22;6639;50.956;4.242;2023-02-03T12:55:20;16.80;99.90
13148;DHT22;6639;50.956;4.242;2023-02-03T12:57:53;16.30;99.90
13148;DHT22;6639;50.956;4.242;2023-02-03T13:00:34;16.00;99.90
13148;DHT22;6639;50.956;4.242;2023-02-03T13:03:12;16.30;99.90
13148;DHT22;6639;50.956;4.242;2023-02-03T13:05:48;16.40;99.90
13148;DHT22;6639;50.956;4.242;2023-02-03T13:08:26;16.40;99.90
13148;DHT22;6639;50.956;4.242;2023-02-03T13:11:18;16.90;99.90
13148;DHT22;6639;50.956;4.242;2023-02-03T13:13:49;17.10;99.90
13148;DHT22;6639;50.956;4.242;2023-02-03T13:16:24;17.00;99.90
13148;DHT22;6639;50.956;4.242;2023-02-03T13:18:57;17.00;99.90
13148;DHT22;6639;50.956;4.242;2023-02-03T13:21:26;17.10;99.90
13148;DHT22;6639;50.956;4.242;2023-02-03T13:23:54;17.10;99.90
13148;DHT22;6639;50.956;4.242;2023-02-03T13:26:49;17.20;99.90
13148;DHT22;6639;50.956;4.242;2023-02-03T13:29:57;16.60;99.90
13148;DHT22;6639;50.956;4.242;2023-02-03T13:32:58;16.20;99.90
13148;DHT22;6639;50.956;4.242;2023-02-03T13:35:55;16.20;99.90
13148;DHT22;6639;50.956;4.242;2023-02-03T13:38:52;16.30;99.90
13148;DHT22;6639;50.956;4.242;2023-02-03T13:41:30;15.90;99.90
13148;DHT22;6639;50.956;4.242;2023-02-03T13:44:10;15.50;99.90
13148;DHT22;6639;50.956;4.242;2023-02-03T13:46:39;15.80;99.90
13148;DHT22;6639;50.956;4.242;2023-02-03T13:49:08;16.10;99.90
13148;DHT22;6639;50.956;4.242;2023-02-03T13:51:37;16.40;99.90
13148;DHT22;6639;50.956;4.242;2023-02-03T13:54:14;16.40;99.90
13148;DHT22;6639;50.956;4.242;2023-02-03T13:56:52;16.50;99.90
13148;DHT22;6639;50.956;4.242;2023-02-03T13:59:39;16.60;99.90
13148;DHT22;6639;50.956;4.242;2023-02-03T14:05:41;16.40;99.90
13148;DHT22;6639;50.956;4.242;2023-02-03T14:11:38;16.50;99.90
13148;DHT22;6639;50.956;4.242;2023-02-03T14:14:39;16.10;99.90
13148;DHT22;6639;50.956;4.242;2023-02-03T14:23:33;16.30;99.90
13148;DHT22;6639;50.956;4.242;2023-02-03T14:26:04;15.90;99.90
13148;DHT22;6639;50.956;4.242;2023-02-03T14:28:51;15.70;99.90
13148;DHT22;6639;50.956;4.242;2023-02-03T14:31:19;15.90;99.90
13148;DHT22;6639;50.956;4.242;2023-02-03T14:34:09;16.10;99.90
13148;DHT22;6639;50.956;4.242;2023-02-03T14:36:50;15.80;99.90
13148;DHT22;6639;50.956;4.242;2023-02-03T14:39:56;15.80;99.90
13148;DHT22;6639;50.956;4.242;2023-02-03T14:42:42;16.00;99.90
13148;DHT22;6639;50.956;4.242;2023-02-03T14:45:23;15.80;99.90
13148;DHT22;6639;50.956;4.242;2023-02-03T14:48:04;15.80;99.90
13148;DHT22;6639;50.956;4.242;2023-02-03T14:50:47;16.00;99.90
13148;DHT22;6639;50.956;4.242;2023-02-03T14:53:37;15.70;99.90
13148;DHT22;6639;50.956;4.242;2023-02-03T14:56:12;15.50;99.90
13148;DHT22;6639;50.956;4.242;2023-02-03T14:58:47;15.50;99.90
13148;DHT22;6639;50.956;4.242;2023-02-03T15:01:24;15.50;99.90
13148;DHT22;6639;50.956;4.242;2023-02-03T15:04:22;15.40;99.90
13148;DHT22;6639;50.956;4.242;2023-02-03T15:06:51;15.80;99.90
13148;DHT22;6639;50.956;4.242;2023-02-03T15:09:31;16.00;99.90
13148;DHT22;6639;50.956;4.242;2023-02-03T15:12:01;15.90;99.90
13148;DHT22;6639;50.956;4.242;2023-02-03T15:14:32;15.90;99.90
13148;DHT22;6639;50.956;4.242;2023-02-03T15:17:03;15.60;99.90
13148;DHT22;6639;50.956;4.242;2023-02-03T15:19:40;15.50;99.90
13148;DHT22;6639;50.956;4.242;2023-02-03T15:22:18;15.60;99.90
13148;DHT22;6639;50.956;4.242;2023-02-03T15:24:56;15.70;99.90
13148;DHT22;6639;50.956;4.242;2023-02-03T15:27:25;15.80;99.90
13148;DHT22;6639;50.956;4.242;2023-02-03T15:29:53;15.90;99.90
13148;DHT22;6639;50.956;4.242;2023-02-03T15:32:25;15.90;99.90
13148;DHT22;6639;50.956;4.242;2023-02-03T15:34:57;15.60;99.90
13148;DHT22;6639;50.956;4.242;2023-02-03T15:37:29;15.60;99.90
13148;DHT22;6639;50.956;4.242;2023-02-03T15:40:18;15.90;99.90
13148;DHT22;6639;50.956;4.242;2023-02-03T15:42:52;16.60;99.90
13148;DHT22;6639;50.956;4.242;2023-02-03T15:45:27;16.30;99.90
13148;DHT22;6639;50.956;4.242;2023-02-03T15:48:01;16.10;99.90
13148;DHT22;6639;50.956;4.242;2023-02-03T15:50:34;16.40;99.90
13148;DHT22;6639;50.956;4.242;2023-02-03T15:53:04;16.50;99.90
13148;DHT22;6639;50.956;4.242;2023-02-03T15:55:37;16.20;99.90
13148;DHT22;6639;50.956;4.242;2023-02-03T15:58:15;16.50;99.90
13148;DHT22;6639;50.956;4.242;2023-02-03T16:00:47;16.90;99.90
13148;DHT22;6639;50.956;4.242;2023-02-03T16:03:17;17.10;99.90
13148;DHT22;6639;50.956;4.242;2023-02-03T16:05:46;17.30;99.90
13148;DHT22;6639;50.956;4.242;2023-02-03T16:08:37;17.50;99.90
13148;DHT22;6639;50.956;4.242;2023-02-03T16:11:28;17.40;99.90
13148;DHT22;6639;50.956;4.242;2023-02-03T16:13:59;17.30;99.90
13148;DHT22;6639;50.956;4.242;2023-02-03T16:16:29;17.10;99.90
13148;DHT22;6639;50.956;4.242;2023-02-03T16:18:59;16.70;99.90
13148;DHT22;6639;50.956;4.242;2023-02-03T16:21:33;17.10;99.90
13148;DHT22;6639;50.956;4.242;2023-02-03T16:24:04;17.10;99.90
13148;DHT22;6639;50.956;4.242;2023-02-03T16:26:45;16.50;99.90
13148;DHT22;6639;50.956;4.242;2023-02-03T16:29:14;16.90;99.90
13148;DHT22;6639;50.956;4.242;2023-02-03T16:31:59;16.90;99.90
13148;DHT22;6639;50.956;4.242;2023-02-03T16:34:48;16.90;99.90
13148;DHT22;6639;50.956;4.242;2023-02-03T16:37:44;16.90;99.90
13148;DHT22;6639;50.956;4.242;2023-02-03T16:40:49;16.60;99.90
13148;DHT22;6639;50.956;4.242;2023-02-03T16:43:35;16.60;99.90
13148;DHT22;6639;50.956;4.242;2023-02-03T16:46:22;16.70;99.90
13148;DHT22;6639;50.956;4.242;2023-02-03T16:49:20;16.50;99.90
13148;DHT22;6639;50.956;4.242;2023-02-03T16:52:06;16.60;99.90
13148;DHT22;6639;50.956;4.242;2023-02-03T16:54:35;16.70;99.90
13148;DHT22;6639;50.956;4.242;2023-02-03T16:57:06;16.90;99.90
13148;DHT22;6639;50.956;4.242;2023-02-03T16:59:35;16.50;99.90
13148;DHT22;6639;50.956;4.242;2023-02-03T17:02:22;16.40;99.90
13148;DHT22;6639;50.956;4.242;2023-02-03T17:04:50;16.60;99.90
13148;DHT22;6639;50.956;4.242;2023-02-03T17:07:17;16.80;99.90